sensor_id;sensor_type;location;lat;lon;timestamp;temperature;humidity
24686;DHT22;12804;51.176;4.452;2022-10-31T00:01:18;14.40;99.90
24686;DHT22;12804;51.176;4.452;2022-10-31T00:03:44;14.40;99.90
24686;DHT22;12804;51.176;4.452;2022-10-31T00:06:10;14.30;99.90
24686;DHT22;12804;51.176;4.452;2022-10-31T00:08:36;14.40;99.90
24686;DHT22;12804;51.176;4.452;2022-10-31T00:11:02;14.40;99.90
24686;DHT22;12804;51.176;4.452;2022-10-31T00:13:28;14.40;99.90
24686;DHT22;12804;51.176;4.452;2022-10-31T00:15:53;14.30;99.90
24686;DHT22;12804;51.176;4.452;2022-10-31T00:18:19;14.30;99.90
24686;DHT22;12804;51.176;4.452;2022-10-31T00:20:45;14.20;99.90
24686;DHT22;12804;51.176;4.452;2022-10-31T00:23:11;14.20;99.90
24686;DHT22;12804;51.176;4.452;2022-10-31T00:25:38;14.10;99.90
24686;DHT22;12804;51.176;4.452;2022-10-31T00:28:06;14.10;99.90
24686;DHT22;12804;51.176;4.452;2022-10-31T00:30:32;14.10;99.90
24686;DHT22;12804;51.176;4.452;2022-10-31T00:32:58;14.10;99.90
24686;DHT22;12804;51.176;4.452;2022-10-31T00:35:24;13.90;99.90
24686;DHT22;12804;51.176;4.452;2022-10-31T00:37:50;13.80;99.90
24686;DHT22;12804;51.176;4.452;2022-10-31T00:40:15;13.70;99.90
24686;DHT22;12804;51.176;4.452;2022-10-31T00:42:41;13.70;99.90
24686;DHT22;12804;51.176;4.452;2022-10-31T00:45:09;13.70;99.90
24686;DHT22;12804;51.176;4.452;2022-10-31T00:47:35;13.60;99.90
24686;DHT22;12804;51.176;4.452;2022-10-31T00:50:01;13.60;99.90
24686;DHT22;12804;51.176;4.452;2022-10-31T00:52:27;13.70;99.90
24686;DHT22;12804;51.176;4.452;2022-10-31T00:54:52;13.80;99.90
24686;DHT22;12804;51.176;4.452;2022-10-31T00:57:18;13.70;99.90
24686;DHT22;12804;51.176;4.452;2022-10-31T00:59:44;13.60;99.90
24686;DHT22;12804;51.176;4.452;2022-10-31T01:02:10;13.50;99.90
24686;DHT22;12804;51.176;4.452;2022-10-31T01:04:36;13.50;99.90
24686;DHT22;12804;51.176;4.452;2022-10-31T01:07:02;13.50;99.90
24686;DHT22;12804;51.176;4.452;2022-10-31T01:09:28;13.50;99.90
24686;DHT22;12804;51.176;4.452;2022-10-31T01:11:54;13.40;99.90
24686;DHT22;12804;51.176;4.452;2022-10-31T01:14:22;13.40;99.90
24686;DHT22;12804;51.176;4.452;2022-10-31T01:16:48;13.30;99.90
24686;DHT22;12804;51.176;4.452;2022-10-31T01:19:13;13.30;99.90
24686;DHT22;12804;51.176;4.452;2022-10-31T01:21:39;13.30;99.90
24686;DHT22;12804;51.176;4.452;2022-10-31T01:24:05;13.30;99.90
24686;DHT22;12804;51.176;4.452;2022-10-31T01:26:32;13.30;99.90
24686;DHT22;12804;51.176;4.452;2022-10-31T01:29:05;13.20;99.90
24686;DHT22;12804;51.176;4.452;2022-10-31T01:31:37;13.20;99.90
24686;DHT22;12804;51.176;4.452;2022-10-31T01:34:03;13.20;99.90
24686;DHT22;12804;51.176;4.452;2022-10-31T01:36:32;13.10;99.90
24686;DHT22;12804;51.176;4.452;2022-10-31T01:39:00;13.10;99.90
24686;DHT22;12804;51.176;4.452;2022-10-31T01:41:29;13.10;99.90
24686;DHT22;12804;51.176;4.452;2022-10-31T01:43:58;13.10;99.90
24686;DHT22;12804;51.176;4.452;2022-10-31T01:46:37;13.10;99.90
24686;DHT22;12804;51.176;4.452;2022-10-31T01:49:10;13.00;99.90
24686;DHT22;12804;51.176;4.452;2022-10-31T01:51:43;12.90;99.90
24686;DHT22;12804;51.176;4.452;2022-10-31T01:54:15;12.90;99.90
24686;DHT22;12804;51.176;4.452;2022-10-31T01:56:45;13.00;99.90
24686;DHT22;12804;51.176;4.452;2022-10-31T01:59:16;13.00;99.90
24686;DHT22;12804;51.176;4.452;2022-10-31T02:01:43;12.90;99.90
24686;DHT22;12804;51.176;4.452;2022-10-31T02:04:09;12.90;99.90
24686;DHT22;12804;51.176;4.452;2022-10-31T02:06:40;12.90;99.90
24686;DHT22;12804;51.176;4.452;2022-10-31T02:09:12;12.80;99.90
24686;DHT22;12804;51.176;4.452;2022-10-31T02:11:40;12.70;99.90
24686;DHT22;12804;51.176;4.452;2022-10-31T02:14:09;12.80;99.90
24686;DHT22;12804;51.176;4.452;2022-10-31T02:16:35;12.70;99.90
24686;DHT22;12804;51.176;4.452;2022-10-31T02:19:02;12.70;99.90
24686;DHT22;12804;51.176;4.452;2022-10-31T02:22:02;12.70;99.90
24686;DHT22;12804;51.176;4.452;2022-10-31T02:24:44;12.70;99.90
24686;DHT22;12804;51.176;4.452;2022-10-31T02:30:07;12.60;99.90
24686;DHT22;12804;51.176;4.452;2022-10-31T02:33:29;12.60;99.90
24686;DHT22;12804;51.176;4.452;2022-10-31T02:35:55;12.50;99.90
24686;DHT22;12804;51.176;4.452;2022-10-31T02:47:06;12.50;99.90
24686;DHT22;12804;51.176;4.452;2022-10-31T02:49:40;12.40;99.90
24686;DHT22;12804;51.176;4.452;2022-10-31T02:52:21;12.40;99.90
24686;DHT22;12804;51.176;4.452;2022-10-31T02:54:47;12.40;99.90
24686;DHT22;12804;51.176;4.452;2022-10-31T02:57:15;12.40;99.90
24686;DHT22;12804;51.176;4.452;2022-10-31T02:59:58;12.40;99.90
24686;DHT22;12804;51.176;4.452;2022-10-31T03:05:18;12.40;99.90
24686;DHT22;12804;51.176;4.452;2022-10-31T03:13:17;12.30;99.90
24686;DHT22;12804;51.176;4.452;2022-10-31T03:15:49;12.30;99.90
24686;DHT22;12804;51.176;4.452;2022-10-31T03:18:31;12.20;99.90
24686;DHT22;12804;51.176;4.452;2022-10-31T03:23:36;12.10;99.90
24686;DHT22;12804;51.176;4.452;2022-10-31T03:26:05;12.10;99.90
24686;DHT22;12804;51.176;4.452;2022-10-31T03:28:36;12.10;99.90
24686;DHT22;12804;51.176;4.452;2022-10-31T03:31:04;12.20;99.90
24686;DHT22;12804;51.176;4.452;2022-10-31T03:33:34;12.20;99.90
24686;DHT22;12804;51.176;4.452;2022-10-31T03:36:04;12.10;99.90
24686;DHT22;12804;51.176;4.452;2022-10-31T03:38:32;12.00;99.90
24686;DHT22;12804;51.176;4.452;2022-10-31T03:41:00;12.10;99.90
24686;DHT22;12804;51.176;4.452;2022-10-31T03:43:33;12.10;99.90
24686;DHT22;12804;51.176;4.452;2022-10-31T03:46:02;12.20;99.90
24686;DHT22;12804;51.176;4.452;2022-10-31T03:48:28;12.10;99.90
24686;DHT22;12804;51.176;4.452;2022-10-31T03:51:36;12.10;99.90
24686;DHT22;12804;51.176;4.452;2022-10-31T03:54:08;12.00;99.90
24686;DHT22;12804;51.176;4.452;2022-10-31T03:56:36;11.90;99.90
24686;DHT22;12804;51.176;4.452;2022-10-31T03:59:18;11.90;99.90
24686;DHT22;12804;51.176;4.452;2022-10-31T04:01:50;12.00;99.90
24686;DHT22;12804;51.176;4.452;2022-10-31T04:04:19;12.00;99.90
24686;DHT22;12804;51.176;4.452;2022-10-31T04:06:46;12.00;99.90
24686;DHT22;12804;51.176;4.452;2022-10-31T04:09:13;11.90;99.90
24686;DHT22;12804;51.176;4.452;2022-10-31T04:11:48;11.80;99.90
24686;DHT22;12804;51.176;4.452;2022-10-31T04:14:37;11.80;99.90
24686;DHT22;12804;51.176;4.452;2022-10-31T04:17:07;11.70;99.90
24686;DHT22;12804;51.176;4.452;2022-10-31T04:19:38;11.60;99.90
24686;DHT22;12804;51.176;4.452;2022-10-31T04:22:03;11.60;99.90
24686;DHT22;12804;51.176;4.452;2022-10-31T04:24:30;11.60;99.90
24686;DHT22;12804;51.176;4.452;2022-10-31T04:26:56;11.60;99.90
24686;DHT22;12804;51.176;4.452;2022-10-31T04:29:23;11.60;99.90
24686;DHT22;12804;51.176;4.452;2022-10-31T04:31:48;11.50;99.90
24686;DHT22;12804;51.176;4.452;2022-10-31T04:34:14;11.40;99.90
24686;DHT22;12804;51.176;4.452;2022-10-31T04:36:40;11.40;99.90
24686;DHT22;12804;51.176;4.452;2022-10-31T04:39:07;11.40;99.90
24686;DHT22;12804;51.176;4.452;2022-10-31T04:41:45;11.40;99.90
24686;DHT22;12804;51.176;4.452;2022-10-31T04:44:13;11.40;99.90
24686;DHT22;12804;51.176;4.452;2022-10-31T04:46:39;11.30;99.90
24686;DHT22;12804;51.176;4.452;2022-10-31T04:49:06;11.20;99.90
24686;DHT22;12804;51.176;4.452;2022-10-31T04:51:34;11.30;99.90
24686;DHT22;12804;51.176;4.452;2022-10-31T04:54:00;11.30;99.90
24686;DHT22;12804;51.176;4.452;2022-10-31T04:56:45;11.20;99.90
24686;DHT22;12804;51.176;4.452;2022-10-31T04:59:16;11.20;99.90
24686;DHT22;12804;51.176;4.452;2022-10-31T05:01:48;11.20;99.90
24686;DHT22;12804;51.176;4.452;2022-10-31T05:04:16;11.10;99.90
24686;DHT22;12804;51.176;4.452;2022-10-31T05:06:42;11.10;99.90
24686;DHT22;12804;51.176;4.452;2022-10-31T05:09:07;11.10;99.90
24686;DHT22;12804;51.176;4.452;2022-10-31T05:11:33;11.20;99.90
24686;DHT22;12804;51.176;4.452;2022-10-31T05:14:10;11.20;99.90
24686;DHT22;12804;51.176;4.452;2022-10-31T05:16:54;11.20;99.90
24686;DHT22;12804;51.176;4.452;2022-10-31T05:19:46;11.20;99.90
24686;DHT22;12804;51.176;4.452;2022-10-31T05:22:48;11.20;99.90
24686;DHT22;12804;51.176;4.452;2022-10-31T05:25:15;11.10;99.90
24686;DHT22;12804;51.176;4.452;2022-10-31T05:27:42;11.10;99.90
24686;DHT22;12804;51.176;4.452;2022-10-31T05:30:09;11.10;99.90
24686;DHT22;12804;51.176;4.452;2022-10-31T05:32:41;11.10;99.90
24686;DHT22;12804;51.176;4.452;2022-10-31T05:35:28;11.10;99.90
24686;DHT22;12804;51.176;4.452;2022-10-31T05:38:14;11.10;99.90
24686;DHT22;12804;51.176;4.452;2022-10-31T05:40:40;11.10;99.90
24686;DHT22;12804;51.176;4.452;2022-10-31T05:43:06;11.00;99.90
24686;DHT22;12804;51.176;4.452;2022-10-31T05:45:32;11.00;99.90
24686;DHT22;12804;51.176;4.452;2022-10-31T05:48:02;11.10;99.90
24686;DHT22;12804;51.176;4.452;2022-10-31T05:50:48;11.10;99.90
24686;DHT22;12804;51.176;4.452;2022-10-31T05:53:15;11.10;99.90
24686;DHT22;12804;51.176;4.452;2022-10-31T05:55:42;11.10;99.90
24686;DHT22;12804;51.176;4.452;2022-10-31T05:58:12;11.20;99.90
24686;DHT22;12804;51.176;4.452;2022-10-31T06:00:40;11.30;99.90
24686;DHT22;12804;51.176;4.452;2022-10-31T06:03:09;11.30;99.90
24686;DHT22;12804;51.176;4.452;2022-10-31T06:05:44;11.40;99.90
24686;DHT22;12804;51.176;4.452;2022-10-31T06:08:10;11.40;99.90
24686;DHT22;12804;51.176;4.452;2022-10-31T06:10:37;11.40;99.90
24686;DHT22;12804;51.176;4.452;2022-10-31T06:13:03;11.50;99.90
24686;DHT22;12804;51.176;4.452;2022-10-31T06:15:51;11.50;99.90
24686;DHT22;12804;51.176;4.452;2022-10-31T06:18:21;11.60;99.90
24686;DHT22;12804;51.176;4.452;2022-10-31T06:20:50;11.70;99.90
24686;DHT22;12804;51.176;4.452;2022-10-31T06:23:16;11.80;99.90
24686;DHT22;12804;51.176;4.452;2022-10-31T06:25:48;11.80;99.90
24686;DHT22;12804;51.176;4.452;2022-10-31T06:28:14;11.80;99.90
24686;DHT22;12804;51.176;4.452;2022-10-31T06:30:48;11.80;99.90
24686;DHT22;12804;51.176;4.452;2022-10-31T06:33:15;11.80;99.90
24686;DHT22;12804;51.176;4.452;2022-10-31T06:35:49;11.90;99.90
24686;DHT22;12804;51.176;4.452;2022-10-31T06:38:17;11.90;99.90
24686;DHT22;12804;51.176;4.452;2022-10-31T06:40:43;12.00;99.90
24686;DHT22;12804;51.176;4.452;2022-10-31T06:43:19;12.10;99.90
24686;DHT22;12804;51.176;4.452;2022-10-31T06:45:45;12.10;99.90
24686;DHT22;12804;51.176;4.452;2022-10-31T06:48:14;12.10;99.90
24686;DHT22;12804;51.176;4.452;2022-10-31T06:51:00;12.20;99.90
24686;DHT22;12804;51.176;4.452;2022-10-31T06:53:27;12.30;99.90
24686;DHT22;12804;51.176;4.452;2022-10-31T06:55:58;12.20;99.90
24686;DHT22;12804;51.176;4.452;2022-10-31T06:58:24;12.40;99.90
24686;DHT22;12804;51.176;4.452;2022-10-31T07:00:53;12.40;99.90
24686;DHT22;12804;51.176;4.452;2022-10-31T07:03:19;12.30;99.90
24686;DHT22;12804;51.176;4.452;2022-10-31T07:05:46;12.40;99.90
24686;DHT22;12804;51.176;4.452;2022-10-31T07:08:14;12.40;99.90
24686;DHT22;12804;51.176;4.452;2022-10-31T07:10:41;12.40;99.90
24686;DHT22;12804;51.176;4.452;2022-10-31T07:13:13;12.40;99.90
24686;DHT22;12804;51.176;4.452;2022-10-31T07:15:44;12.50;99.90
24686;DHT22;12804;51.176;4.452;2022-10-31T07:18:11;12.50;99.90
24686;DHT22;12804;51.176;4.452;2022-10-31T07:20:37;12.60;99.90
24686;DHT22;12804;51.176;4.452;2022-10-31T07:23:03;12.60;99.90
24686;DHT22;12804;51.176;4.452;2022-10-31T07:25:31;12.70;99.90
24686;DHT22;12804;51.176;4.452;2022-10-31T07:28:05;12.80;99.90
24686;DHT22;12804;51.176;4.452;2022-10-31T07:30:32;12.80;99.90
24686;DHT22;12804;51.176;4.452;2022-10-31T07:32:58;12.90;99.90
24686;DHT22;12804;51.176;4.452;2022-10-31T07:35:35;13.00;99.90
24686;DHT22;12804;51.176;4.452;2022-10-31T07:38:09;13.00;99.90
24686;DHT22;12804;51.176;4.452;2022-10-31T07:40:35;13.10;99.90
24686;DHT22;12804;51.176;4.452;2022-10-31T07:43:01;13.20;99.90
24686;DHT22;12804;51.176;4.452;2022-10-31T07:45:43;13.20;99.90
24686;DHT22;12804;51.176;4.452;2022-10-31T07:48:28;13.10;99.90
24686;DHT22;12804;51.176;4.452;2022-10-31T07:51:32;13.30;99.90
24686;DHT22;12804;51.176;4.452;2022-10-31T07:54:17;13.30;99.90
24686;DHT22;12804;51.176;4.452;2022-10-31T07:56:42;13.40;99.90
24686;DHT22;12804;51.176;4.452;2022-10-31T07:59:08;13.40;99.90
24686;DHT22;12804;51.176;4.452;2022-10-31T08:01:34;13.40;99.90
24686;DHT22;12804;51.176;4.452;2022-10-31T08:04:20;13.40;99.90
24686;DHT22;12804;51.176;4.452;2022-10-31T08:07:04;13.40;99.90
24686;DHT22;12804;51.176;4.452;2022-10-31T08:09:34;13.50;99.90
24686;DHT22;12804;51.176;4.452;2022-10-31T08:12:05;13.50;99.90
24686;DHT22;12804;51.176;4.452;2022-10-31T08:14:33;13.50;99.90
24686;DHT22;12804;51.176;4.452;2022-10-31T08:16:58;13.60;99.90
24686;DHT22;12804;51.176;4.452;2022-10-31T08:19:32;13.70;99.90
24686;DHT22;12804;51.176;4.452;2022-10-31T08:21:58;13.70;99.90
24686;DHT22;12804;51.176;4.452;2022-10-31T08:24:24;13.80;99.90
24686;DHT22;12804;51.176;4.452;2022-10-31T08:26:50;13.90;99.90
24686;DHT22;12804;51.176;4.452;2022-10-31T08:29:17;14.10;99.90
24686;DHT22;12804;51.176;4.452;2022-10-31T08:31:43;14.20;99.90
24686;DHT22;12804;51.176;4.452;2022-10-31T08:34:28;14.20;99.90
24686;DHT22;12804;51.176;4.452;2022-10-31T08:37:12;14.30;99.90
24686;DHT22;12804;51.176;4.452;2022-10-31T08:39:42;14.40;99.90
24686;DHT22;12804;51.176;4.452;2022-10-31T08:42:08;14.60;99.90
24686;DHT22;12804;51.176;4.452;2022-10-31T08:44:34;14.70;99.90
24686;DHT22;12804;51.176;4.452;2022-10-31T08:47:00;14.90;99.90
24686;DHT22;12804;51.176;4.452;2022-10-31T08:49:26;14.90;99.90
24686;DHT22;12804;51.176;4.452;2022-10-31T08:51:52;14.90;99.90
24686;DHT22;12804;51.176;4.452;2022-10-31T08:54:20;14.90;99.90
24686;DHT22;12804;51.176;4.452;2022-10-31T08:56:56;14.80;99.90
24686;DHT22;12804;51.176;4.452;2022-10-31T08:59:43;14.90;99.90
24686;DHT22;12804;51.176;4.452;2022-10-31T09:02:19;15.00;99.90
24686;DHT22;12804;51.176;4.452;2022-10-31T09:04:47;15.00;99.90
24686;DHT22;12804;51.176;4.452;2022-10-31T09:07:13;15.20;99.90
24686;DHT22;12804;51.176;4.452;2022-10-31T09:09:39;15.20;99.90
24686;DHT22;12804;51.176;4.452;2022-10-31T09:12:05;15.20;99.90
24686;DHT22;12804;51.176;4.452;2022-10-31T09:14:49;15.20;99.90
24686;DHT22;12804;51.176;4.452;2022-10-31T09:17:37;15.20;99.90
24686;DHT22;12804;51.176;4.452;2022-10-31T09:20:28;15.20;99.90
24686;DHT22;12804;51.176;4.452;2022-10-31T09:22:58;15.30;99.90
24686;DHT22;12804;51.176;4.452;2022-10-31T09:25:25;15.30;99.90
24686;DHT22;12804;51.176;4.452;2022-10-31T09:28:12;15.30;99.90
24686;DHT22;12804;51.176;4.452;2022-10-31T09:30:38;15.40;99.90
24686;DHT22;12804;51.176;4.452;2022-10-31T09:33:10;15.40;99.90
24686;DHT22;12804;51.176;4.452;2022-10-31T09:35:38;15.40;99.90
24686;DHT22;12804;51.176;4.452;2022-10-31T09:38:06;15.40;99.90
24686;DHT22;12804;51.176;4.452;2022-10-31T09:48:43;15.30;99.90
24686;DHT22;12804;51.176;4.452;2022-10-31T09:51:25;15.20;99.90
24686;DHT22;12804;51.176;4.452;2022-10-31T09:56:45;15.30;99.90
24686;DHT22;12804;51.176;4.452;2022-10-31T09:59:24;15.50;99.90
24686;DHT22;12804;51.176;4.452;2022-10-31T10:01:57;15.50;99.90
24686;DHT22;12804;51.176;4.452;2022-10-31T10:14:56;15.60;99.90
24686;DHT22;12804;51.176;4.452;2022-10-31T10:19:40;15.70;99.90
24686;DHT22;12804;51.176;4.452;2022-10-31T10:22:35;15.80;99.90
24686;DHT22;12804;51.176;4.452;2022-10-31T10:25:15;16.00;99.90
24686;DHT22;12804;51.176;4.452;2022-10-31T10:32:59;16.40;99.90
24686;DHT22;12804;51.176;4.452;2022-10-31T10:35:34;16.50;99.90
24686;DHT22;12804;51.176;4.452;2022-10-31T10:38:45;16.60;99.90
24686;DHT22;12804;51.176;4.452;2022-10-31T10:41:17;16.70;99.90
24686;DHT22;12804;51.176;4.452;2022-10-31T10:43:43;16.80;99.90
24686;DHT22;12804;51.176;4.452;2022-10-31T10:57:11;17.00;99.90
24686;DHT22;12804;51.176;4.452;2022-10-31T10:59:39;17.10;99.90
24686;DHT22;12804;51.176;4.452;2022-10-31T11:02:17;17.30;99.90
24686;DHT22;12804;51.176;4.452;2022-10-31T11:04:44;17.50;99.90
24686;DHT22;12804;51.176;4.452;2022-10-31T11:07:11;17.60;99.90
24686;DHT22;12804;51.176;4.452;2022-10-31T11:09:37;17.70;99.90
24686;DHT22;12804;51.176;4.452;2022-10-31T11:12:30;17.70;99.90
24686;DHT22;12804;51.176;4.452;2022-10-31T11:15:08;17.80;99.90
24686;DHT22;12804;51.176;4.452;2022-10-31T11:17:42;17.70;99.90
24686;DHT22;12804;51.176;4.452;2022-10-31T11:22:45;17.60;99.90
24686;DHT22;12804;51.176;4.452;2022-10-31T11:25:22;17.50;99.90
24686;DHT22;12804;51.176;4.452;2022-10-31T11:28:03;17.40;99.90
24686;DHT22;12804;51.176;4.452;2022-10-31T11:30:30;17.40;99.90
24686;DHT22;12804;51.176;4.452;2022-10-31T11:33:01;17.10;99.90
24686;DHT22;12804;51.176;4.452;2022-10-31T11:35:27;17.10;99.90
24686;DHT22;12804;51.176;4.452;2022-10-31T11:37:56;17.10;99.90
24686;DHT22;12804;51.176;4.452;2022-10-31T11:40:25;17.30;99.90
24686;DHT22;12804;51.176;4.452;2022-10-31T11:42:55;17.40;99.90
24686;DHT22;12804;51.176;4.452;2022-10-31T11:47:52;17.30;99.90
24686;DHT22;12804;51.176;4.452;2022-10-31T11:50:24;17.20;99.90
24686;DHT22;12804;51.176;4.452;2022-10-31T11:52:51;17.20;99.90
24686;DHT22;12804;51.176;4.452;2022-10-31T11:55:34;17.30;99.90
24686;DHT22;12804;51.176;4.452;2022-10-31T11:58:00;17.50;99.90
24686;DHT22;12804;51.176;4.452;2022-10-31T12:00:32;17.70;99.90
24686;DHT22;12804;51.176;4.452;2022-10-31T12:05:49;18.30;99.90
24686;DHT22;12804;51.176;4.452;2022-10-31T12:08:17;18.50;99.90
24686;DHT22;12804;51.176;4.452;2022-10-31T12:11:01;18.40;99.90
24686;DHT22;12804;51.176;4.452;2022-10-31T12:13:33;18.50;99.90
24686;DHT22;12804;51.176;4.452;2022-10-31T12:16:12;18.80;99.90
24686;DHT22;12804;51.176;4.452;2022-10-31T12:18:50;19.10;99.90
24686;DHT22;12804;51.176;4.452;2022-10-31T12:24:13;19.00;99.90
24686;DHT22;12804;51.176;4.452;2022-10-31T12:26:51;19.10;99.90
24686;DHT22;12804;51.176;4.452;2022-10-31T12:32:54;19.30;99.90
24686;DHT22;12804;51.176;4.452;2022-10-31T12:47:05;18.80;99.90
24686;DHT22;12804;51.176;4.452;2022-10-31T12:52:33;19.30;99.90
24686;DHT22;12804;51.176;4.452;2022-10-31T12:57:45;19.40;99.90
24686;DHT22;12804;51.176;4.452;2022-10-31T13:00:16;19.30;99.90
24686;DHT22;12804;51.176;4.452;2022-10-31T13:03:00;19.50;99.90
24686;DHT22;12804;51.176;4.452;2022-10-31T13:05:43;19.60;99.90
24686;DHT22;12804;51.176;4.452;2022-10-31T13:08:20;19.70;99.90
24686;DHT22;12804;51.176;4.452;2022-10-31T13:11:08;19.80;99.90
24686;DHT22;12804;51.176;4.452;2022-10-31T13:13:43;19.80;99.90
24686;DHT22;12804;51.176;4.452;2022-10-31T13:16:14;20.00;99.90
24686;DHT22;12804;51.176;4.452;2022-10-31T13:18:55;20.10;99.90
24686;DHT22;12804;51.176;4.452;2022-10-31T13:21:27;20.30;99.90
24686;DHT22;12804;51.176;4.452;2022-10-31T13:23:55;20.50;99.90
24686;DHT22;12804;51.176;4.452;2022-10-31T13:31:43;20.60;99.90
24686;DHT22;12804;51.176;4.452;2022-10-31T13:39:52;20.80;99.90
24686;DHT22;12804;51.176;4.452;2022-10-31T13:44:52;20.30;99.90
24686;DHT22;12804;51.176;4.452;2022-10-31T13:49:47;20.40;99.90
24686;DHT22;12804;51.176;4.452;2022-10-31T13:52:14;20.50;99.90
24686;DHT22;12804;51.176;4.452;2022-10-31T13:54:49;20.50;99.90
24686;DHT22;12804;51.176;4.452;2022-10-31T13:57:29;20.60;99.90
24686;DHT22;12804;51.176;4.452;2022-10-31T13:59:58;20.60;99.90
24686;DHT22;12804;51.176;4.452;2022-10-31T14:02:30;20.50;99.90
24686;DHT22;12804;51.176;4.452;2022-10-31T14:05:16;20.40;99.90
24686;DHT22;12804;51.176;4.452;2022-10-31T14:07:44;20.40;99.90
24686;DHT22;12804;51.176;4.452;2022-10-31T14:10:26;20.30;99.90
24686;DHT22;12804;51.176;4.452;2022-10-31T14:13:03;20.10;99.90
24686;DHT22;12804;51.176;4.452;2022-10-31T14:15:30;20.00;99.90
24686;DHT22;12804;51.176;4.452;2022-10-31T14:17:59;19.70;99.90
24686;DHT22;12804;51.176;4.452;2022-10-31T14:20:31;19.50;99.90
24686;DHT22;12804;51.176;4.452;2022-10-31T14:22:58;19.50;99.90
24686;DHT22;12804;51.176;4.452;2022-10-31T14:25:36;19.30;99.90
24686;DHT22;12804;51.176;4.452;2022-10-31T14:28:31;19.30;99.90
24686;DHT22;12804;51.176;4.452;2022-10-31T14:30:59;19.40;99.90
24686;DHT22;12804;51.176;4.452;2022-10-31T14:33:27;19.50;99.90
24686;DHT22;12804;51.176;4.452;2022-10-31T14:36:23;19.60;99.90
24686;DHT22;12804;51.176;4.452;2022-10-31T14:42:06;19.40;99.90
24686;DHT22;12804;51.176;4.452;2022-10-31T14:52:56;19.10;99.90
24686;DHT22;12804;51.176;4.452;2022-10-31T14:55:23;19.10;99.90
24686;DHT22;12804;51.176;4.452;2022-10-31T14:57:54;19.20;99.90
24686;DHT22;12804;51.176;4.452;2022-10-31T15:00:22;19.20;99.90
24686;DHT22;12804;51.176;4.452;2022-10-31T15:05:53;19.20;99.90
24686;DHT22;12804;51.176;4.452;2022-10-31T15:08:40;19.10;99.90
24686;DHT22;12804;51.176;4.452;2022-10-31T15:11:14;19.10;99.90
24686;DHT22;12804;51.176;4.452;2022-10-31T15:13:50;19.00;99.90
24686;DHT22;12804;51.176;4.452;2022-10-31T15:16:21;18.90;99.90
24686;DHT22;12804;51.176;4.452;2022-10-31T15:18:59;18.80;99.90
24686;DHT22;12804;51.176;4.452;2022-10-31T15:21:27;18.70;99.90
24686;DHT22;12804;51.176;4.452;2022-10-31T15:23:58;18.60;99.90
24686;DHT22;12804;51.176;4.452;2022-10-31T15:26:31;18.60;99.90
24686;DHT22;12804;51.176;4.452;2022-10-31T15:28:59;18.50;99.90
24686;DHT22;12804;51.176;4.452;2022-10-31T15:31:25;18.50;99.90
24686;DHT22;12804;51.176;4.452;2022-10-31T15:33:53;18.50;99.90
24686;DHT22;12804;51.176;4.452;2022-10-31T15:36:21;18.50;99.90
24686;DHT22;12804;51.176;4.452;2022-10-31T15:38:49;18.40;99.90
24686;DHT22;12804;51.176;4.452;2022-10-31T15:41:46;18.40;99.90
24686;DHT22;12804;51.176;4.452;2022-10-31T15:44:28;18.30;99.90
24686;DHT22;12804;51.176;4.452;2022-10-31T15:49:29;17.80;99.90
24686;DHT22;12804;51.176;4.452;2022-10-31T15:51:57;17.70;99.90
24686;DHT22;12804;51.176;4.452;2022-10-31T15:54:26;17.60;99.90
24686;DHT22;12804;51.176;4.452;2022-10-31T15:56:52;17.50;99.90
24686;DHT22;12804;51.176;4.452;2022-10-31T15:59:24;17.50;99.90
24686;DHT22;12804;51.176;4.452;2022-10-31T16:02:03;17.50;99.90
24686;DHT22;12804;51.176;4.452;2022-10-31T16:04:33;17.40;99.90
24686;DHT22;12804;51.176;4.452;2022-10-31T16:07:02;17.40;99.90
24686;DHT22;12804;51.176;4.452;2022-10-31T16:09:28;17.30;99.90
24686;DHT22;12804;51.176;4.452;2022-10-31T16:11:56;17.30;99.90
24686;DHT22;12804;51.176;4.452;2022-10-31T16:14:27;17.20;99.90
24686;DHT22;12804;51.176;4.452;2022-10-31T16:16:55;17.20;99.90
24686;DHT22;12804;51.176;4.452;2022-10-31T16:19:31;17.10;99.90
24686;DHT22;12804;51.176;4.452;2022-10-31T16:22:09;17.00;99.90
24686;DHT22;12804;51.176;4.452;2022-10-31T16:24:47;16.90;99.90
24686;DHT22;12804;51.176;4.452;2022-10-31T16:27:19;16.90;99.90
24686;DHT22;12804;51.176;4.452;2022-10-31T16:29:48;16.80;99.90
24686;DHT22;12804;51.176;4.452;2022-10-31T16:32:32;16.70;99.90
24686;DHT22;12804;51.176;4.452;2022-10-31T16:37:25;16.70;99.90
24686;DHT22;12804;51.176;4.452;2022-10-31T16:39:50;16.60;99.90
24686;DHT22;12804;51.176;4.452;2022-10-31T16:42:16;16.50;99.90
24686;DHT22;12804;51.176;4.452;2022-10-31T16:44:43;16.40;99.90
24686;DHT22;12804;51.176;4.452;2022-10-31T16:47:14;16.40;99.90
24686;DHT22;12804;51.176;4.452;2022-10-31T16:49:44;16.40;99.90
24686;DHT22;12804;51.176;4.452;2022-10-31T16:52:11;16.30;99.90
24686;DHT22;12804;51.176;4.452;2022-10-31T16:54:37;16.30;99.90
24686;DHT22;12804;51.176;4.452;2022-10-31T16:57:15;16.20;99.90
24686;DHT22;12804;51.176;4.452;2022-10-31T16:59:43;16.20;99.90
24686;DHT22;12804;51.176;4.452;2022-10-31T17:02:15;16.10;99.90
24686;DHT22;12804;51.176;4.452;2022-10-31T17:04:41;16.10;99.90
24686;DHT22;12804;51.176;4.452;2022-10-31T17:07:07;16.10;99.90
24686;DHT22;12804;51.176;4.452;2022-10-31T17:09:33;16.10;99.90
24686;DHT22;12804;51.176;4.452;2022-10-31T17:11:59;16.10;99.90
24686;DHT22;12804;51.176;4.452;2022-10-31T17:14:25;16.00;99.90
24686;DHT22;12804;51.176;4.452;2022-10-31T17:16:51;16.00;99.90
24686;DHT22;12804;51.176;4.452;2022-10-31T17:19:16;15.80;99.90
24686;DHT22;12804;51.176;4.452;2022-10-31T17:21:42;15.90;99.90
24686;DHT22;12804;51.176;4.452;2022-10-31T17:24:12;15.90;99.90
24686;DHT22;12804;51.176;4.452;2022-10-31T17:26:39;15.90;99.90
24686;DHT22;12804;51.176;4.452;2022-10-31T17:29:04;15.90;99.90
24686;DHT22;12804;51.176;4.452;2022-10-31T17:31:32;15.90;99.90
24686;DHT22;12804;51.176;4.452;2022-10-31T17:33:59;15.90;99.90
24686;DHT22;12804;51.176;4.452;2022-10-31T17:36:25;15.80;99.90
24686;DHT22;12804;51.176;4.452;2022-10-31T17:38:51;15.80;99.90
24686;DHT22;12804;51.176;4.452;2022-10-31T17:41:17;15.70;99.90
24686;DHT22;12804;51.176;4.452;2022-10-31T17:43:43;15.70;99.90
24686;DHT22;12804;51.176;4.452;2022-10-31T17:46:08;15.70;99.90
24686;DHT22;12804;51.176;4.452;2022-10-31T17:48:35;15.60;99.90
24686;DHT22;12804;51.176;4.452;2022-10-31T17:51:05;15.70;99.90
24686;DHT22;12804;51.176;4.452;2022-10-31T17:53:32;15.70;99.90
24686;DHT22;12804;51.176;4.452;2022-10-31T17:56:03;15.80;99.90
24686;DHT22;12804;51.176;4.452;2022-10-31T17:58:30;15.70;99.90
24686;DHT22;12804;51.176;4.452;2022-10-31T18:00:57;15.70;99.90
24686;DHT22;12804;51.176;4.452;2022-10-31T18:03:24;15.70;99.90
24686;DHT22;12804;51.176;4.452;2022-10-31T18:05:57;15.70;99.90